Time;durP1;ratioP1;P1;durP2;ratioP2;P2;SDS_P1;SDS_P2;PMS_P1;PMS_P2;Temp;Humidity;BMP_temperature;BMP_pressure;BME280_temperature;BME280_humidity;BME280_pressure;Samples;Min_cycle;Max_cycle;Signal;HPM_P1;HPM_P2
2021/10/05 00:03:19;;;;;;;10.35;9.30;;;13.00;95.00;;;;;;5103024;27;20216;-88
2021/10/05 00:06:27;;;;;;;9.25;8.35;;;13.00;95.10;;;;;;5040340;28;20625;-86
2021/10/05 00:09:06;;;;;;;9.05;8.25;;;13.10;95.20;;;;;;5040977;28;20332;-87
2021/10/05 00:11:57;;;;;;;9.68;8.68;;;13.20;95.10;;;;;;5129644;27;20234;-86
2021/10/05 00:14:55;;;;;;;9.07;8.18;;;13.20;95.40;;;;;;5106048;28;20234;-86
2021/10/05 00:17:35;;;;;;;10.98;8.30;;;13.10;94.90;;;;;;5100936;28;20250;-87
2021/10/05 00:20:19;;;;;;;9.15;8.32;;;13.20;95.00;;;;;;5113159;28;20207;-86
2021/10/05 00:23:14;;;;;;;10.75;8.55;;;13.10;95.20;;;;;;5116621;28;20273;-86
2021/10/05 00:26:10;;;;;;;8.73;7.82;;;13.00;95.40;;;;;;5099750;28;20283;-88
2021/10/05 00:32:07;;;;;;;14.07;9.00;;;13.00;95.70;;;;;;5104081;28;20306;-87
2021/10/05 00:35:06;;;;;;;8.80;7.90;;;12.90;95.60;;;;;;5134565;28;20209;-86
2021/10/05 00:37:59;;;;;;;10.70;8.35;;;12.80;95.80;;;;;;5086664;28;20204;-86
2021/10/05 00:41:07;;;;;;;9.50;8.60;;;12.90;96.20;;;;;;5121331;28;20207;-86
2021/10/05 00:47:28;;;;;;;9.23;8.00;;;12.80;96.40;;;;;;5130870;27;20692;-86
2021/10/05 00:50:35;;;;;;;9.35;8.35;;;12.80;96.40;;;;;;5041135;28;20286;-87
2021/10/05 00:53:05;;;;;;;9.88;8.88;;;12.90;96.40;;;;;;5054117;28;20259;-88
2021/10/05 00:59:18;;;;;;;12.82;8.82;;;12.80;96.60;;;;;;5040667;28;20219;-87
2021/10/05 01:02:19;;;;;;;10.88;9.68;;;12.90;97.10;;;;;;5041774;28;20227;-87
2021/10/05 01:04:59;;;;;;;12.88;9.23;;;12.80;96.80;;;;;;5123253;27;20198;-89
2021/10/05 01:07:27;;;;;;;10.93;8.68;;;12.90;96.90;;;;;;5129986;27;20251;-86
2021/10/05 01:10:02;;;;;;;11.20;9.18;;;13.00;96.70;;;;;;5117899;28;20192;-88
2021/10/05 01:13:07;;;;;;;11.48;8.85;;;12.80;97.00;;;;;;5128766;27;20228;-86
2021/10/05 01:15:43;;;;;;;10.35;9.23;;;12.90;96.80;;;;;;5120832;27;20199;-87
2021/10/05 01:18:14;;;;;;;9.55;8.65;;;12.90;97.10;;;;;;5112405;28;20275;-87
2021/10/05 01:21:13;;;;;;;9.50;8.57;;;13.00;97.10;;;;;;5123901;27;20202;-88
2021/10/05 01:23:51;;;;;;;9.57;8.63;;;13.00;96.80;;;;;;5121763;27;20218;-86
2021/10/05 01:26:40;;;;;;;11.18;8.50;;;13.10;96.90;;;;;;5112148;28;20191;-87
2021/10/05 01:29:29;;;;;;;12.18;9.18;;;13.20;96.90;;;;;;5119115;28;20204;-86
2021/10/05 01:32:08;;;;;;;10.40;9.20;;;13.10;96.70;;;;;;5105356;28;20231;-87
2021/10/05 01:34:38;;;;;;;12.23;9.98;;;13.10;97.00;;;;;;5127751;27;20208;-87
2021/10/05 01:37:23;;;;;;;10.00;9.00;;;13.10;96.70;;;;;;5131040;27;20253;-87
2021/10/05 01:40:04;;;;;;;11.60;9.15;;;13.10;96.50;;;;;;5115866;27;20216;-86
2021/10/05 01:43:05;;;;;;;12.50;9.18;;;12.90;96.70;;;;;;5127178;27;20215;-87
2021/10/05 01:46:04;;;;;;;10.10;9.07;;;13.00;97.00;;;;;;5099825;28;20197;-86
2021/10/05 01:48:43;;;;;;;13.52;8.98;;;13.00;97.10;;;;;;5126371;27;20231;-86
2021/10/05 01:51:14;;;;;;;14.25;9.68;;;13.10;96.90;;;;;;5138482;27;20217;-86
2021/10/05 02:07:41;;;;;;;11.30;9.45;;;13.10;97.20;;;;;;5135361;27;20227;-87
2021/10/05 02:10:45;;;;;;;11.45;10.00;;;13.10;97.30;;;;;;5077280;28;20292;-87
2021/10/05 02:17:07;;;;;;;12.02;10.13;;;13.00;97.50;;;;;;5010239;28;20206;-86
2021/10/05 02:29:28;;;;;;;12.88;10.93;;;13.00;97.70;;;;;;4992451;28;20211;-86
2021/10/05 02:32:05;;;;;;;12.15;10.18;;;12.90;97.80;;;;;;5039765;28;20574;-87
2021/10/05 02:34:33;;;;;;;13.18;11.30;;;12.80;98.20;;;;;;5041448;28;20713;-87
2021/10/05 02:37:23;;;;;;;13.88;11.00;;;12.80;98.20;;;;;;5053255;28;20281;-86
2021/10/05 02:46:25;;;;;;;15.95;12.68;;;13.00;98.00;;;;;;5084174;27;20195;-86
2021/10/05 02:52:05;;;;;;;11.70;10.45;;;12.90;98.00;;;;;;5084774;27;20232;-87
2021/10/05 02:57:19;;;;;;;13.27;11.85;;;12.80;98.60;;;;;;5122662;28;20223;-86
2021/10/05 02:59:59;;;;;;;14.50;11.35;;;12.80;98.20;;;;;;5132083;27;20204;-87
2021/10/05 03:02:41;;;;;;;12.00;10.63;;;12.80;98.40;;;;;;5125187;27;20223;-88
2021/10/05 03:05:42;;;;;;;13.50;11.18;;;12.80;98.50;;;;;;5090396;28;20193;-86
2021/10/05 03:11:13;;;;;;;11.85;10.63;;;12.70;98.60;;;;;;5050611;28;20201;-88
2021/10/05 03:13:40;;;;;;;15.45;11.77;;;12.70;98.50;;;;;;5097648;28;20378;-86
2021/10/05 03:16:08;;;;;;;13.70;11.43;;;12.80;98.50;;;;;;5102944;28;20224;-87
2021/10/05 03:18:35;;;;;;;12.82;11.38;;;12.80;98.60;;;;;;5102382;28;20232;-86
2021/10/05 03:21:03;;;;;;;12.38;11.07;;;12.80;98.60;;;;;;5108856;28;20192;-87
2021/10/05 03:23:32;;;;;;;14.77;11.85;;;12.90;98.40;;;;;;5111940;28;20228;-86
2021/10/05 03:25:59;;;;;;;12.23;11.00;;;12.90;98.50;;;;;;5107301;28;20561;-87
2021/10/05 03:28:28;;;;;;;14.13;11.38;;;13.00;98.50;;;;;;5095779;28;20227;-86
2021/10/05 03:30:55;;;;;;;12.93;10.93;;;12.90;98.50;;;;;;5113530;28;20204;-87
2021/10/05 03:33:32;;;;;;;12.68;10.02;;;12.90;98.50;;;;;;5098959;28;20246;-88
2021/10/05 03:35:59;;;;;;;11.48;10.05;;;12.80;98.90;;;;;;5112479;28;20196;-86
2021/10/05 03:38:30;;;;;;;12.77;10.52;;;12.80;99.00;;;;;;5104137;28;20662;-87
2021/10/05 03:41:04;;;;;;;11.32;10.13;;;12.80;98.90;;;;;;5109088;28;20192;-89
2021/10/05 03:43:34;;;;;;;12.65;10.50;;;12.90;98.90;;;;;;5120904;28;20222;-86
2021/10/05 03:46:13;;;;;;;10.90;9.80;;;12.90;98.60;;;;;;5109923;28;20200;-87
2021/10/05 03:55:00;;;;;;;13.18;10.95;;;12.80;98.50;;;;;;5112125;28;20228;-87
2021/10/05 03:57:39;;;;;;;13.25;11.00;;;12.80;98.80;;;;;;5068174;28;20273;-87
2021/10/05 04:07:53;;;;;;;11.95;8.07;;;12.90;98.70;;;;;;5077061;28;20225;-86
2021/10/05 04:14:22;;;;;;;13.60;9.90;;;14.30;95.00;;;;;;5020362;28;20234;-87
2021/10/05 04:17:09;;;;;;;13.15;9.98;;;14.20;95.20;;;;;;5060223;28;20235;-86
2021/10/05 04:35:24;;;;;;;14.32;10.52;;;13.50;96.50;;;;;;5081434;28;20203;-90
2021/10/05 04:37:58;;;;;;;13.60;10.93;;;13.30;96.50;;;;;;5088295;28;20240;-86
2021/10/05 04:40:33;;;;;;;12.57;10.50;;;13.40;97.30;;;;;;5089014;28;20201;-86
2021/10/05 04:43:00;;;;;;;12.32;10.75;;;13.20;97.30;;;;;;5053142;28;20203;-89
2021/10/05 04:48:22;;;;;;;13.10;10.73;;;13.10;97.60;;;;;;5108460;28;20231;-86
2021/10/05 05:01:13;;;;;;;14.00;11.10;;;12.80;98.70;;;;;;5031297;28;20208;-87
2021/10/05 05:04:07;;;;;;;11.48;10.20;;;12.80;98.70;;;;;;5081348;28;20627;-88
2021/10/05 05:06:50;;;;;;;12.02;10.60;;;12.80;98.90;;;;;;5019414;28;20250;-88
2021/10/05 05:12:41;;;;;;;12.55;11.20;;;12.80;99.10;;;;;;5066102;28;20240;-88
2021/10/05 05:20:46;;;;;;;12.02;10.65;;;12.80;99.20;;;;;;5097220;28;20663;-88
2021/10/05 05:23:16;;;;;;;12.93;10.60;;;12.70;99.40;;;;;;5094526;28;20248;-88
2021/10/05 05:35:53;;;;;;;13.45;11.07;;;12.90;99.30;;;;;;5052699;28;20189;-85
2021/10/05 05:38:23;;;;;;;13.00;11.00;;;12.80;99.00;;;;;;5054105;28;20245;-89
2021/10/05 05:41:31;;;;;;;;;;;;;;;;;;;;;
2021/10/05 05:51:15;;;;;;;15.70;11.95;;;12.80;99.40;;;;;;5019744;28;20232;-86
2021/10/05 05:57:38;;;;;;;15.00;10.63;;;12.70;99.30;;;;;;5085761;28;20188;-87
2021/10/05 06:16:19;;;;;;;16.30;11.38;;;12.60;99.40;;;;;;5084132;28;20217;-86
2021/10/05 06:19:01;;;;;;;12.70;9.77;;;12.60;99.60;;;;;;5086138;28;20228;-86
2021/10/05 06:21:50;;;;;;;13.95;10.73;;;12.70;99.60;;;;;;5086291;28;20209;-86
2021/10/05 06:24:20;;;;;;;12.55;10.10;;;12.80;99.00;;;;;;5055305;28;20672;-88
2021/10/05 06:26:49;;;;;;;13.18;10.27;;;12.90;98.80;;;;;;5080587;28;20759;-86
2021/10/05 06:29:18;;;;;;;18.67;10.93;;;12.90;99.00;;;;;;5088342;28;20231;-86
2021/10/05 06:31:45;;;;;;;11.32;9.48;;;12.70;98.30;;;;;;5100393;28;20228;-87
2021/10/05 06:34:47;;;;;;;13.38;10.55;;;12.80;98.50;;;;;;5087720;28;20211;-86
2021/10/05 06:37:54;;;;;;;12.73;9.63;;;12.90;98.10;;;;;;5082783;28;20225;-86
2021/10/05 06:44:28;;;;;;;12.45;10.55;;;13.00;97.50;;;;;;5082141;28;20221;-86
2021/10/05 06:47:51;;;;;;;12.60;9.88;;;13.00;98.10;;;;;;5086748;28;20599;-86
2021/10/05 06:50:56;;;;;;;14.32;9.77;;;13.20;97.80;;;;;;5072655;28;20197;-86
2021/10/05 06:53:30;;;;;;;12.10;9.85;;;13.30;97.80;;;;;;5070918;28;20255;-86
2021/10/05 06:59:39;;;;;;;14.20;10.00;;;13.40;96.50;;;;;;5050279;28;20671;-85
2021/10/05 07:02:15;;;;;;;11.80;9.18;;;13.30;96.70;;;;;;5069299;28;20238;-86
2021/10/05 07:08:14;;;;;;;11.75;9.80;;;13.40;96.50;;;;;;5032360;28;20675;-89
2021/10/05 07:10:48;;;;;;;11.45;9.05;;;13.40;96.70;;;;;;5089894;28;20256;-87
2021/10/05 07:13:15;;;;;;;11.02;8.68;;;13.30;97.00;;;;;;5068759;28;20310;-90
2021/10/05 07:15:44;;;;;;;9.95;8.65;;;13.40;97.20;;;;;;5077488;28;20213;-86
2021/10/05 07:18:11;;;;;;;10.23;8.07;;;13.40;97.10;;;;;;5069042;28;20228;-86
2021/10/05 07:20:38;;;;;;;9.50;8.05;;;13.50;96.50;;;;;;5073827;28;20737;-89
2021/10/05 07:23:05;;;;;;;9.25;8.20;;;13.60;96.60;;;;;;5077110;28;20619;-88
2021/10/05 07:25:32;;;;;;;9.68;7.32;;;13.70;96.60;;;;;;5079121;28;20663;-88
2021/10/05 07:27:59;;;;;;;10.25;7.90;;;13.90;95.90;;;;;;5076116;28;20231;-89
2021/10/05 07:30:28;;;;;;;8.93;8.00;;;14.20;94.80;;;;;;5072801;28;20562;-90
2021/10/05 07:33:01;;;;;;;10.20;8.40;;;14.40;94.00;;;;;;5080223;28;20251;-90
2021/10/05 07:35:28;;;;;;;9.88;7.50;;;14.60;93.60;;;;;;5084811;28;20193;-89
2021/10/05 07:38:04;;;;;;;8.98;8.02;;;14.50;93.40;;;;;;5075189;28;20221;-89
2021/10/05 07:40:33;;;;;;;9.68;7.57;;;14.30;93.20;;;;;;5080523;28;20193;-89
2021/10/05 07:43:01;;;;;;;9.57;7.63;;;14.20;94.00;;;;;;5076150;28;20236;-88
2021/10/05 07:45:30;;;;;;;7.70;6.90;;;14.00;94.60;;;;;;5087748;28;20201;-87
2021/10/05 07:47:59;;;;;;;8.25;6.97;;;14.10;94.70;;;;;;5077541;28;20216;-88
2021/10/05 07:50:27;;;;;;;7.78;6.80;;;14.30;94.80;;;;;;5076111;28;20202;-88
2021/10/05 07:52:54;;;;;;;8.23;6.45;;;14.70;94.10;;;;;;5068768;28;20306;-88
2021/10/05 07:55:21;;;;;;;7.45;6.28;;;14.90;93.50;;;;;;5069061;28;20190;-89
2021/10/05 07:57:49;;;;;;;6.78;6.07;;;15.20;91.50;;;;;;5069898;28;20217;-88
2021/10/05 08:00:16;;;;;;;7.00;6.10;;;15.30;91.50;;;;;;5062386;28;20224;-88
2021/10/05 08:02:45;;;;;;;8.23;5.97;;;15.30;91.50;;;;;;5074316;28;20236;-87
2021/10/05 08:05:16;;;;;;;6.80;5.53;;;15.20;91.10;;;;;;5066026;28;20248;-87
2021/10/05 08:07:43;;;;;;;6.95;5.47;;;15.30;91.50;;;;;;5074202;28;20305;-89
2021/10/05 08:10:10;;;;;;;6.53;5.78;;;15.40;90.70;;;;;;5073830;28;20194;-87
2021/10/05 08:12:37;;;;;;;6.75;5.65;;;15.30;91.10;;;;;;5070916;28;20237;-88
2021/10/05 08:15:05;;;;;;;10.90;6.63;;;15.30;91.20;;;;;;5064663;28;20206;-87
2021/10/05 08:17:34;;;;;;;8.32;6.95;;;15.10;91.00;;;;;;5066223;28;20236;-88
2021/10/05 08:20:03;;;;;;;8.23;6.35;;;14.90;91.40;;;;;;5062496;28;20194;-86
2021/10/05 08:22:31;;;;;;;9.35;6.55;;;14.70;92.00;;;;;;5069344;28;20245;-87
2021/10/05 08:24:59;;;;;;;6.85;6.05;;;14.50;92.50;;;;;;5068484;28;20204;-88
2021/10/05 08:27:26;;;;;;;6.60;5.80;;;14.50;93.40;;;;;;5072150;28;20224;-88
2021/10/05 08:29:53;;;;;;;6.43;5.82;;;14.40;93.60;;;;;;5067246;28;20212;-86
2021/10/05 08:32:20;;;;;;;6.95;6.18;;;14.40;94.10;;;;;;5077469;28;20217;-87
2021/10/05 08:34:47;;;;;;;6.25;5.65;;;14.50;93.60;;;;;;5077214;28;20220;-87
2021/10/05 08:37:14;;;;;;;8.27;6.18;;;14.50;93.70;;;;;;5072911;28;20623;-87
2021/10/05 08:39:42;;;;;;;6.40;5.80;;;14.60;93.40;;;;;;5073720;28;20205;-87
2021/10/05 08:42:09;;;;;;;7.60;6.32;;;14.60;93.40;;;;;;5065198;28;20225;-88
2021/10/05 08:44:37;;;;;;;7.38;6.63;;;14.50;93.30;;;;;;5074756;28;20291;-89
2021/10/05 08:47:04;;;;;;;8.02;6.55;;;14.50;93.30;;;;;;5067751;28;20221;-87
2021/10/05 08:49:31;;;;;;;8.07;6.72;;;14.50;93.50;;;;;;5077214;28;20655;-87
2021/10/05 08:51:58;;;;;;;7.78;6.72;;;14.50;93.80;;;;;;5071352;28;20224;-87
2021/10/05 08:54:26;;;;;;;8.90;6.45;;;14.50;93.90;;;;;;5069373;28;20311;-87
2021/10/05 08:56:54;;;;;;;8.48;6.82;;;14.50;93.90;;;;;;5077419;28;20652;-87
2021/10/05 08:59:21;;;;;;;6.70;6.00;;;14.40;94.30;;;;;;5075054;28;20192;-89
2021/10/05 09:01:49;;;;;;;6.78;6.07;;;14.50;94.20;;;;;;5079539;28;20216;-88
2021/10/05 09:04:16;;;;;;;6.47;5.63;;;14.60;93.40;;;;;;5072825;28;20649;-87
2021/10/05 09:06:50;;;;;;;6.72;5.70;;;14.70;93.50;;;;;;5077991;28;20648;-89
2021/10/05 09:09:19;;;;;;;6.90;5.32;;;14.80;93.00;;;;;;5066134;28;20293;-87
2021/10/05 09:11:47;;;;;;;7.63;5.28;;;14.80;93.10;;;;;;5075481;28;20216;-88
2021/10/05 09:14:16;;;;;;;6.40;5.47;;;14.80;93.40;;;;;;5072556;28;20244;-88
2021/10/05 09:16:43;;;;;;;5.25;4.75;;;15.10;92.40;;;;;;5075169;28;20248;-88
2021/10/05 09:19:17;;;;;;;6.78;5.20;;;15.20;91.50;;;;;;5075840;28;20194;-88
2021/10/05 09:21:47;;;;;;;5.25;4.50;;;15.10;92.20;;;;;;5076267;28;21829;-87
2021/10/05 09:24:16;;;;;;;5.80;4.68;;;15.20;92.10;;;;;;5069080;28;20254;-87
2021/10/05 09:26:49;;;;;;;5.15;4.65;;;15.20;92.10;;;;;;5066406;28;20244;-87
2021/10/05 09:29:21;;;;;;;5.53;4.82;;;15.20;91.50;;;;;;5073258;28;20189;-88
2021/10/05 09:31:51;;;;;;;5.50;4.43;;;15.10;92.10;;;;;;5076827;28;20315;-88
2021/10/05 09:34:18;;;;;;;5.53;4.70;;;15.10;93.30;;;;;;5079317;28;20587;-89
2021/10/05 09:36:46;;;;;;;4.80;4.35;;;15.30;92.70;;;;;;5073564;28;20239;-87
2021/10/05 09:39:13;;;;;;;5.07;4.47;;;15.60;91.60;;;;;;5070401;28;20192;-87
2021/10/05 09:41:40;;;;;;;4.47;4.03;;;15.70;91.30;;;;;;5066195;28;20578;-88
2021/10/05 09:44:09;;;;;;;5.07;4.00;;;15.70;90.00;;;;;;5077669;28;20197;-88
2021/10/05 09:46:38;;;;;;;5.57;3.90;;;15.70;90.20;;;;;;5072458;28;20232;-87
2021/10/05 09:49:06;;;;;;;5.03;4.30;;;15.70;90.30;;;;;;5071297;28;20208;-88
2021/10/05 09:51:34;;;;;;;5.18;3.83;;;15.60;90.40;;;;;;5071517;28;22888;-88
2021/10/05 09:54:01;;;;;;;4.13;3.55;;;15.70;90.60;;;;;;5075160;28;20313;-86
2021/10/05 09:56:30;;;;;;;3.95;3.65;;;15.70;90.60;;;;;;5072931;28;20197;-87
2021/10/05 09:58:58;;;;;;;5.50;4.03;;;15.80;88.60;;;;;;5075610;28;20214;-92
2021/10/05 10:01:27;;;;;;;5.30;3.78;;;15.80;89.40;;;;;;5077843;28;20197;-88
2021/10/05 10:03:55;;;;;;;3.95;3.55;;;15.70;90.30;;;;;;5073305;28;20657;-88
2021/10/05 10:06:22;;;;;;;4.22;3.83;;;15.70;90.50;;;;;;5074176;28;20197;-88
2021/10/05 10:08:51;;;;;;;4.63;3.88;;;15.80;90.00;;;;;;5083275;28;20572;-88
2021/10/05 10:11:18;;;;;;;4.38;3.65;;;15.90;89.30;;;;;;5069893;28;20708;-88
2021/10/05 10:13:46;;;;;;;3.45;3.10;;;16.00;88.90;;;;;;5080526;28;21795;-88
2021/10/05 10:16:14;;;;;;;6.80;3.85;;;16.40;86.60;;;;;;5080106;28;20202;-88
2021/10/05 10:18:54;;;;;;;5.88;4.10;;;16.60;83.00;;;;;;5078591;28;20277;-88
2021/10/05 10:21:28;;;;;;;4.60;4.15;;;16.50;82.30;;;;;;5076128;28;20261;-88
2021/10/05 10:24:14;;;;;;;5.05;4.55;;;16.40;81.90;;;;;;5078824;28;20285;-88
2021/10/05 10:26:48;;;;;;;5.78;4.53;;;16.30;82.20;;;;;;5070189;28;20689;-88
2021/10/05 10:29:26;;;;;;;5.68;3.95;;;16.20;82.80;;;;;;5065763;28;20243;-87
2021/10/05 10:31:53;;;;;;;7.88;5.32;;;16.10;83.40;;;;;;5063138;28;20223;-88
2021/10/05 10:34:22;;;;;;;5.95;5.22;;;15.90;84.50;;;;;;5064515;28;20224;-89
2021/10/05 10:36:51;;;;;;;5.13;4.60;;;15.80;85.60;;;;;;5068092;28;20229;-89
2021/10/05 10:39:20;;;;;;;8.48;4.72;;;15.70;87.60;;;;;;5065232;28;20194;-87
2021/10/05 10:41:59;;;;;;;5.32;4.80;;;15.80;87.90;;;;;;5063156;28;20221;-89
2021/10/05 10:44:34;;;;;;;5.25;4.40;;;16.10;85.30;;;;;;5077787;28;20193;-89
2021/10/05 10:47:11;;;;;;;5.13;4.63;;;16.20;83.60;;;;;;5071973;28;20413;-87
2021/10/05 10:49:38;;;;;;;6.82;4.80;;;16.20;83.60;;;;;;5065055;28;20211;-84
2021/10/05 10:52:23;;;;;;;7.20;4.72;;;16.10;84.00;;;;;;5074577;28;20221;-85
2021/10/05 10:54:53;;;;;;;4.78;4.38;;;15.90;85.10;;;;;;5073137;28;20224;-88
2021/10/05 10:57:20;;;;;;;4.85;4.38;;;15.80;86.50;;;;;;5074874;28;20216;-89
2021/10/05 10:59:47;;;;;;;5.20;4.72;;;15.90;86.30;;;;;;5069644;28;20193;-89
2021/10/05 11:02:14;;;;;;;9.13;6.00;;;15.90;85.40;;;;;;5069698;28;20223;-89
2021/10/05 11:04:41;;;;;;;7.35;5.10;;;15.80;87.30;;;;;;5075055;28;20205;-89
2021/10/05 11:07:10;;;;;;;5.40;4.90;;;15.50;86.40;;;;;;5072653;28;20245;-90
2021/10/05 11:09:38;;;;;;;4.80;4.30;;;15.40;88.40;;;;;;5069928;28;20206;-87
2021/10/05 11:12:08;;;;;;;5.07;4.60;;;15.50;87.50;;;;;;5065831;28;20311;-86
2021/10/05 11:14:38;;;;;;;4.60;4.20;;;15.80;84.10;;;;;;5069798;28;20269;-86
2021/10/05 11:17:09;;;;;;;4.15;3.85;;;16.10;82.80;;;;;;5077181;28;20240;-87
2021/10/05 11:19:37;;;;;;;5.35;4.95;;;16.20;80.90;;;;;;5063152;28;20202;-90
2021/10/05 11:22:08;;;;;;;4.90;4.50;;;16.40;79.30;;;;;;5064526;28;20221;-85
2021/10/05 11:24:40;;;;;;;4.47;4.07;;;16.40;78.30;;;;;;5074929;28;20193;-88
2021/10/05 11:27:13;;;;;;;4.40;4.00;;;16.40;80.40;;;;;;5067544;28;20226;-87
2021/10/05 11:29:40;;;;;;;5.13;4.63;;;16.30;81.70;;;;;;5064032;28;20194;-86
2021/10/05 11:32:09;;;;;;;6.35;4.20;;;16.10;82.40;;;;;;5066207;28;20239;-86
2021/10/05 11:34:38;;;;;;;5.03;4.20;;;16.00;83.50;;;;;;5064810;28;20280;-86
2021/10/05 11:37:07;;;;;;;4.75;4.30;;;16.10;83.10;;;;;;5069144;28;20212;-86
2021/10/05 11:39:35;;;;;;;4.18;3.80;;;16.00;83.20;;;;;;5070847;28;20565;-86
2021/10/05 11:42:09;;;;;;;3.90;3.60;;;15.90;84.40;;;;;;5076115;28;20221;-86
2021/10/05 11:44:41;;;;;;;5.25;4.57;;;15.70;85.00;;;;;;5071960;28;20218;-86
2021/10/05 11:47:10;;;;;;;4.80;4.40;;;15.70;83.70;;;;;;5071914;28;20286;-87
2021/10/05 11:49:43;;;;;;;5.25;4.75;;;15.30;84.40;;;;;;5074288;28;20201;-86
2021/10/05 11:52:15;;;;;;;4.53;4.13;;;15.30;85.80;;;;;;5078558;28;20217;-88
2021/10/05 11:54:42;;;;;;;4.70;4.22;;;15.30;86.30;;;;;;5073645;28;20230;-87
2021/10/05 11:57:13;;;;;;;4.80;4.00;;;15.70;85.20;;;;;;5076762;28;20223;-87
2021/10/05 11:59:42;;;;;;;4.40;4.00;;;15.80;83.90;;;;;;5044917;28;20213;-87
2021/10/05 12:02:11;;;;;;;4.18;3.78;;;15.80;84.60;;;;;;5067112;28;20225;-87
2021/10/05 12:04:43;;;;;;;5.00;4.25;;;15.90;84.20;;;;;;5070279;28;20198;-88
2021/10/05 12:07:11;;;;;;;5.35;4.05;;;15.90;82.40;;;;;;5079909;28;20217;-87
2021/10/05 12:09:40;;;;;;;4.72;4.32;;;15.90;82.00;;;;;;5070419;28;22229;-88
2021/10/05 12:12:13;;;;;;;6.53;4.15;;;15.90;82.60;;;;;;5075964;28;20224;-87
2021/10/05 12:14:42;;;;;;;4.82;4.20;;;16.20;81.70;;;;;;5071025;28;20436;-86
2021/10/05 12:17:13;;;;;;;5.50;3.53;;;16.50;78.30;;;;;;5068047;28;20293;-86
2021/10/05 12:19:44;;;;;;;4.38;3.58;;;16.90;78.70;;;;;;5068616;28;20196;-87
2021/10/05 12:22:12;;;;;;;3.63;3.33;;;17.10;76.80;;;;;;5074683;28;20656;-87
2021/10/05 12:24:43;;;;;;;3.75;3.20;;;17.50;73.20;;;;;;5082246;28;20208;-86
2021/10/05 12:27:17;;;;;;;3.80;3.30;;;17.30;71.60;;;;;;5074245;28;20221;-89
2021/10/05 12:29:50;;;;;;;3.60;3.25;;;17.40;72.70;;;;;;5071315;28;20941;-88
2021/10/05 12:32:18;;;;;;;4.55;3.50;;;17.70;68.70;;;;;;5069608;28;20598;-89
2021/10/05 12:34:51;;;;;;;7.32;3.60;;;17.70;67.90;;;;;;5068929;28;20303;-88
2021/10/05 12:37:20;;;;;;;3.53;3.22;;;17.60;66.30;;;;;;5067671;28;20252;-88
2021/10/05 12:40:01;;;;;;;3.22;2.92;;;17.50;67.20;;;;;;5071620;28;20643;-86
2021/10/05 12:42:54;;;;;;;3.22;2.92;;;17.50;68.30;;;;;;5072834;28;20275;-84
2021/10/05 12:45:25;;;;;;;3.70;3.20;;;17.60;70.30;;;;;;5072207;28;20201;-84
2021/10/05 12:47:59;;;;;;;3.40;3.10;;;17.80;67.20;;;;;;5087193;28;20312;-84
2021/10/05 12:50:29;;;;;;;3.58;3.28;;;17.70;66.90;;;;;;5082514;28;20287;-87
2021/10/05 12:52:59;;;;;;;4.10;3.00;;;17.80;65.50;;;;;;5081464;28;20689;-85
2021/10/05 12:55:29;;;;;;;4.68;3.10;;;17.80;65.20;;;;;;5081724;28;20216;-86
2021/10/05 12:57:58;;;;;;;3.40;3.10;;;17.80;65.10;;;;;;5073123;28;20687;-85
2021/10/05 13:00:26;;;;;;;4.97;2.90;;;17.70;65.60;;;;;;5085033;28;20192;-86
2021/10/05 13:02:53;;;;;;;4.10;3.13;;;17.80;65.30;;;;;;5076698;28;20221;-87
2021/10/05 13:05:22;;;;;;;5.40;2.63;;;17.90;66.10;;;;;;5084773;28;20193;-86
2021/10/05 13:07:50;;;;;;;3.35;3.08;;;18.00;63.10;;;;;;5077708;28;20224;-85
2021/10/05 13:10:19;;;;;;;3.63;2.90;;;17.90;64.00;;;;;;5082221;28;20195;-86
2021/10/05 13:12:46;;;;;;;3.60;3.30;;;18.00;62.60;;;;;;5075293;28;20216;-88
2021/10/05 13:15:15;;;;;;;3.33;3.03;;;17.80;63.20;;;;;;5069944;28;20307;-86
2021/10/05 13:17:43;;;;;;;3.33;3.05;;;17.80;65.20;;;;;;5080134;28;20235;-86
2021/10/05 13:20:12;;;;;;;3.28;2.95;;;17.90;63.90;;;;;;5069867;28;20279;-85
2021/10/05 13:22:40;;;;;;;3.38;3.00;;;17.60;63.40;;;;;;5071964;28;20221;-86
2021/10/05 13:25:09;;;;;;;3.28;2.78;;;17.50;66.40;;;;;;5081672;28;20197;-84
2021/10/05 13:27:36;;;;;;;3.10;2.80;;;17.20;71.50;;;;;;5078824;28;20221;-85
2021/10/05 13:30:05;;;;;;;3.28;3.00;;;17.10;69.40;;;;;;5086498;28;20199;-84
2021/10/05 13:32:34;;;;;;;3.53;3.00;;;17.00;70.60;;;;;;5091988;28;20259;-84
2021/10/05 13:35:02;;;;;;;3.28;2.97;;;17.00;71.20;;;;;;5085267;28;20274;-85
2021/10/05 13:37:30;;;;;;;3.10;2.80;;;16.80;70.20;;;;;;5081714;28;20217;-85
2021/10/05 13:39:57;;;;;;;3.08;2.78;;;17.00;72.10;;;;;;5081476;28;20844;-86
2021/10/05 13:42:24;;;;;;;3.35;2.67;;;17.10;70.80;;;;;;5080282;28;20217;-85
2021/10/05 13:44:53;;;;;;;3.85;3.03;;;17.30;69.60;;;;;;5076521;28;20200;-86
2021/10/05 13:47:20;;;;;;;5.10;2.50;;;17.20;70.20;;;;;;5076405;28;20616;-87
2021/10/05 13:49:49;;;;;;;2.97;2.67;;;17.20;71.20;;;;;;5079043;28;20676;-87
2021/10/05 13:52:16;;;;;;;3.97;2.75;;;17.30;70.10;;;;;;5072813;28;20241;-84
2021/10/05 13:54:44;;;;;;;2.88;2.67;;;17.20;66.70;;;;;;5084914;28;20307;-87
2021/10/05 13:57:17;;;;;;;4.07;2.60;;;17.00;71.50;;;;;;5089498;28;20221;-86
2021/10/05 13:59:44;;;;;;;4.20;2.35;;;16.90;71.60;;;;;;5082823;28;20212;-85
2021/10/05 14:02:13;;;;;;;4.07;2.70;;;16.90;71.60;;;;;;5081501;28;20227;-86
2021/10/05 14:04:40;;;;;;;3.63;2.50;;;16.60;74.80;;;;;;5078891;28;20194;-86
2021/10/05 14:07:09;;;;;;;5.45;2.70;;;16.60;74.90;;;;;;5081327;28;20224;-88
2021/10/05 14:09:36;;;;;;;2.90;2.65;;;16.60;75.20;;;;;;5077803;28;20299;-86
2021/10/05 14:12:05;;;;;;;2.63;2.42;;;16.70;76.00;;;;;;5073276;28;20416;-87
2021/10/05 14:14:32;;;;;;;4.88;2.53;;;16.70;75.40;;;;;;5077212;28;20210;-85
2021/10/05 14:16:59;;;;;;;2.60;2.40;;;16.70;75.20;;;;;;5075569;28;20722;-86
2021/10/05 14:19:26;;;;;;;3.50;2.65;;;16.60;76.10;;;;;;5074083;28;20201;-86
2021/10/05 14:21:53;;;;;;;4.60;2.65;;;16.60;77.10;;;;;;5071165;28;20572;-85
2021/10/05 14:24:23;;;;;;;3.10;2.50;;;16.60;76.30;;;;;;5069022;28;20204;-85
2021/10/05 14:26:51;;;;;;;3.63;2.45;;;16.60;76.60;;;;;;5068658;28;20233;-86
2021/10/05 14:29:18;;;;;;;3.03;2.17;;;16.70;75.40;;;;;;5074932;28;20212;-86
2021/10/05 14:31:45;;;;;;;2.28;2.08;;;16.70;75.70;;;;;;5069525;28;20228;-85
2021/10/05 14:34:12;;;;;;;4.15;2.40;;;16.50;77.40;;;;;;5073438;28;20200;-85
2021/10/05 14:36:40;;;;;;;2.67;2.30;;;16.30;78.20;;;;;;5070333;28;20221;-85
2021/10/05 14:39:07;;;;;;;2.65;2.45;;;16.30;78.20;;;;;;5069746;28;20196;-86
2021/10/05 14:41:36;;;;;;;3.42;2.47;;;16.20;78.20;;;;;;5069633;28;20209;-85
2021/10/05 14:44:03;;;;;;;2.72;2.47;;;16.20;78.10;;;;;;5072852;28;20201;-87
2021/10/05 14:46:30;;;;;;;4.43;2.80;;;16.00;80.10;;;;;;5072984;28;20198;-86
2021/10/05 14:48:57;;;;;;;3.17;2.45;;;16.10;79.50;;;;;;5063662;28;20198;-86
2021/10/05 14:51:24;;;;;;;2.80;2.60;;;16.00;81.40;;;;;;5069767;28;20200;-85
2021/10/05 14:53:51;;;;;;;2.45;2.20;;;16.00;80.90;;;;;;5077359;28;21013;-88
2021/10/05 14:56:20;;;;;;;11.90;7.07;;;16.00;80.90;;;;;;5068862;28;20224;-85
2021/10/05 14:58:51;;;;;;;4.57;2.78;;;16.00;81.50;;;;;;5064884;28;20200;-86
2021/10/05 15:01:18;;;;;;;10.18;4.85;;;15.80;82.60;;;;;;5068289;28;20202;-86
2021/10/05 15:03:45;;;;;;;2.67;2.40;;;15.80;84.70;;;;;;5069719;28;20214;-88
2021/10/05 15:06:12;;;;;;;3.67;2.40;;;15.60;86.70;;;;;;5066501;28;20205;-89
2021/10/05 15:08:39;;;;;;;7.00;4.05;;;15.50;88.60;;;;;;5064696;28;20229;-88
2021/10/05 15:11:06;;;;;;;5.50;3.75;;;15.40;90.10;;;;;;5061734;28;20664;-89
2021/10/05 15:13:33;;;;;;;3.70;2.85;;;15.40;90.40;;;;;;5060185;28;20308;-89
2021/10/05 15:16:02;;;;;;;11.85;6.72;;;15.30;91.00;;;;;;5057974;28;20593;-89
2021/10/05 15:18:29;;;;;;;12.35;5.50;;;15.30;91.50;;;;;;5064822;28;20231;-89
2021/10/05 15:20:58;;;;;;;9.25;5.45;;;15.50;91.20;;;;;;5057790;28;20201;-88
2021/10/05 15:23:25;;;;;;;3.88;2.60;;;15.40;90.90;;;;;;5057481;28;20233;-90
2021/10/05 15:25:52;;;;;;;1.98;1.83;;;15.50;90.00;;;;;;5058805;28;20209;-90
2021/10/05 15:28:19;;;;;;;2.40;1.60;;;15.30;89.40;;;;;;5056040;28;20221;-90
2021/10/05 15:30:47;;;;;;;2.28;2.00;;;15.10;90.20;;;;;;5061756;28;20291;-89
2021/10/05 15:33:15;;;;;;;7.15;2.63;;;14.90;91.40;;;;;;5059120;28;20225;-90
2021/10/05 15:35:42;;;;;;;2.38;1.90;;;14.80;91.50;;;;;;5060634;28;20226;-88
2021/10/05 15:38:09;;;;;;;3.78;2.72;;;14.70;91.70;;;;;;5059053;28;20272;-90
2021/10/05 15:40:40;;;;;;;2.55;2.00;;;14.80;92.00;;;;;;5062478;28;20297;-89
2021/10/05 15:43:07;;;;;;;1.80;1.70;;;14.60;92.10;;;;;;5061300;28;20308;-90
2021/10/05 15:45:34;;;;;;;2.45;2.20;;;14.40;93.30;;;;;;5061845;28;20683;-91
2021/10/05 15:48:01;;;;;;;2.15;1.77;;;14.40;93.80;;;;;;5064935;28;20651;-90
2021/10/05 15:50:33;;;;;;;2.35;2.10;;;14.20;93.90;;;;;;5041834;28;20211;-90